JZA786 CYYZ-KDCA
Flight info
| Callsign | JZA786 |
|---|---|
| Flight time | 1h 7m |
| Altitude | 27000 |
| Route | RIGUS5 PSB SKILS5 |
| Aircraft | CRJ9/M-SDFGIRWY/S |
Departure
| Time | 2026-05-06 02:28 |
|---|---|
| Airport | Toronto Pearson International Airport (CYYZ) |
Arrival
| Time | 2026-05-06 03:36 |
|---|---|
| Airport | Ronald Reagan Washington National Airport (KDCA) |
| Time | Latitude | Longitude | Altitude | Speed | Heading |
|---|---|---|---|---|---|
| 2026-05-06 01:42 | 43.67841 | -79.60753 | 560 ft | 0 kts | 46° |
| 2026-05-06 02:09 | 43.67838 | -79.60759 | 560 ft | 3 kts | 46° |
| 2026-05-06 02:09 | 43.67825 | -79.60783 | 560 ft | 4 kts | 71° |
| 2026-05-06 02:09 | 43.67826 | -79.60816 | 560 ft | 4 kts | 113° |
| 2026-05-06 02:09 | 43.67836 | -79.60837 | 560 ft | 0 kts | 136° |
| 2026-05-06 02:13 | 43.67831 | -79.60830 | 560 ft | 6 kts | 136° |
| 2026-05-06 02:14 | 43.67794 | -79.60782 | 560 ft | 7 kts | 136° |
| 2026-05-06 02:14 | 43.67755 | -79.60731 | 560 ft | 3 kts | 136° |
| 2026-05-06 02:14 | 43.67693 | -79.60667 | 562 ft | 15 kts | 151° |
| 2026-05-06 02:14 | 43.67617 | -79.60621 | 559 ft | 13 kts | 212° |
| 2026-05-06 02:15 | 43.67553 | -79.60709 | 559 ft | 13 kts | 229° |
| 2026-05-06 02:15 | 43.67496 | -79.60790 | 566 ft | 12 kts | 226° |
| 2026-05-06 02:15 | 43.67440 | -79.60883 | 558 ft | 14 kts | 233° |
| 2026-05-06 02:15 | 43.67378 | -79.61000 | 562 ft | 16 kts | 233° |
| 2026-05-06 02:16 | 43.67317 | -79.61112 | 562 ft | 11 kts | 233° |
| 2026-05-06 02:16 | 43.67271 | -79.61205 | 562 ft | 13 kts | 257° |
| 2026-05-06 02:16 | 43.67313 | -79.61308 | 564 ft | 14 kts | 317° |
| 2026-05-06 02:16 | 43.67382 | -79.61399 | 560 ft | 13 kts | 315° |
| 2026-05-06 02:17 | 43.67446 | -79.61481 | 561 ft | 11 kts | 317° |
| 2026-05-06 02:17 | 43.67502 | -79.61553 | 561 ft | 9 kts | 315° |
| 2026-05-06 02:17 | 43.67551 | -79.61621 | 561 ft | 11 kts | 315° |
| 2026-05-06 02:17 | 43.67605 | -79.61689 | 561 ft | 11 kts | 317° |
| 2026-05-06 02:18 | 43.67665 | -79.61764 | 561 ft | 12 kts | 317° |
| 2026-05-06 02:18 | 43.67721 | -79.61839 | 561 ft | 11 kts | 314° |
| 2026-05-06 02:18 | 43.67774 | -79.61914 | 561 ft | 11 kts | 314° |
| 2026-05-06 02:18 | 43.67830 | -79.61992 | 561 ft | 13 kts | 314° |
| 2026-05-06 02:19 | 43.67913 | -79.62076 | 560 ft | 18 kts | 341° |
| 2026-05-06 02:19 | 43.68021 | -79.62162 | 560 ft | 18 kts | 316° |
| 2026-05-06 02:19 | 43.68110 | -79.62279 | 560 ft | 18 kts | 316° |
| 2026-05-06 02:19 | 43.68200 | -79.62398 | 560 ft | 18 kts | 316° |
| 2026-05-06 02:20 | 43.68397 | -79.62642 | 560 ft | 20 kts | 315° |
| 2026-05-06 02:20 | 43.68498 | -79.62778 | 560 ft | 21 kts | 315° |
| 2026-05-06 02:20 | 43.68606 | -79.62919 | 560 ft | 22 kts | 313° |
| 2026-05-06 02:21 | 43.68718 | -79.63060 | 560 ft | 22 kts | 319° |
| 2026-05-06 02:21 | 43.68830 | -79.63205 | 560 ft | 22 kts | 316° |
| 2026-05-06 02:21 | 43.68941 | -79.63353 | 562 ft | 22 kts | 316° |
| 2026-05-06 02:21 | 43.69044 | -79.63488 | 562 ft | 14 kts | 316° |
| 2026-05-06 02:22 | 43.69110 | -79.63533 | 565 ft | 11 kts | 13° |
| 2026-05-06 02:22 | 43.69146 | -79.63492 | 564 ft | 10 kts | 49° |
| 2026-05-06 02:22 | 43.69260 | -79.63423 | 562 ft | 17 kts | 1° |
| 2026-05-06 02:22 | 43.69322 | -79.63421 | 561 ft | 0 kts | 2° |
| 2026-05-06 02:27 | 43.69343 | -79.63423 | 561 ft | 2 kts | 347° |
| 2026-05-06 02:27 | 43.69394 | -79.63468 | 559 ft | 10 kts | 312° |
| 2026-05-06 02:27 | 43.69393 | -79.63536 | 558 ft | 9 kts | 230° |
| 2026-05-06 02:28 | 43.69208 | -79.63803 | 560 ft | 74 kts | 226° |
| 2026-05-06 02:28 | 43.68700 | -79.64543 | 558 ft | 136 kts | 226° |
| 2026-05-06 02:28 | 43.67934 | -79.65651 | 617 ft | 179 kts | 225° |
| 2026-05-06 02:28 | 43.67057 | -79.66959 | 1258 ft | 186 kts | 227° |
| 2026-05-06 02:29 | 43.66180 | -79.68336 | 1984 ft | 193 kts | 227° |
| 2026-05-06 02:29 | 43.65302 | -79.69789 | 2680 ft | 202 kts | 230° |
| 2026-05-06 02:29 | 43.64449 | -79.71293 | 3612 ft | 192 kts | 230° |
| 2026-05-06 02:29 | 43.63671 | -79.72726 | 4591 ft | 182 kts | 231° |
| 2026-05-06 02:30 | 43.62930 | -79.74095 | 5464 ft | 175 kts | 232° |
| 2026-05-06 02:30 | 43.62095 | -79.75296 | 6107 ft | 183 kts | 212° |
| 2026-05-06 02:30 | 43.60680 | -79.75569 | 6231 ft | 235 kts | 171° |
| 2026-05-06 02:30 | 43.59139 | -79.74915 | 7324 ft | 223 kts | 167° |
| 2026-05-06 02:31 | 43.57733 | -79.74239 | 8398 ft | 212 kts | 168° |
| 2026-05-06 02:31 | 43.56361 | -79.73573 | 9253 ft | 211 kts | 170° |
| 2026-05-06 02:31 | 43.54944 | -79.72953 | 9587 ft | 235 kts | 173° |
| 2026-05-06 02:31 | 43.53323 | -79.72334 | 9590 ft | 271 kts | 173° |
| 2026-05-06 02:32 | 43.51380 | -79.71639 | 9618 ft | 306 kts | 173° |
| 2026-05-06 02:32 | 43.49185 | -79.71064 | 9635 ft | 335 kts | 178° |
| 2026-05-06 02:32 | 43.46789 | -79.70643 | 9901 ft | 352 kts | 179° |
| 2026-05-06 02:32 | 43.44494 | -79.70229 | 11746 ft | 315 kts | 180° |
| 2026-05-06 02:33 | 43.42415 | -79.69820 | 13410 ft | 289 kts | 180° |
| 2026-05-06 02:33 | 43.41132 | -79.69527 | 14376 ft | 275 kts | 180° |
| 2026-05-06 02:34 | 43.35467 | -79.68227 | 17796 ft | 225 kts | 185° |
| 2026-05-06 02:34 | 43.33957 | -79.67915 | 18493 ft | 215 kts | 186° |
| 2026-05-06 02:34 | 43.32506 | -79.67647 | 19103 ft | 207 kts | 187° |
| 2026-05-06 02:34 | 43.31162 | -79.67453 | 19500 ft | 205 kts | 190° |
| 2026-05-06 02:35 | 43.29743 | -79.67353 | 19877 ft | 204 kts | 192° |
| 2026-05-06 02:35 | 43.28319 | -79.67322 | 20252 ft | 204 kts | 193° |
| 2026-05-06 02:35 | 43.26892 | -79.67298 | 20607 ft | 206 kts | 193° |
| 2026-05-06 02:35 | 43.25460 | -79.67277 | 20949 ft | 207 kts | 193° |
| 2026-05-06 02:36 | 43.24033 | -79.67259 | 21282 ft | 208 kts | 193° |
| 2026-05-06 02:36 | 43.22579 | -79.67245 | 21610 ft | 209 kts | 193° |
| 2026-05-06 02:36 | 43.21118 | -79.67235 | 21925 ft | 211 kts | 193° |
| 2026-05-06 02:36 | 43.19647 | -79.67228 | 22210 ft | 212 kts | 193° |
| 2026-05-06 02:37 | 43.18168 | -79.67228 | 22532 ft | 213 kts | 193° |
| 2026-05-06 02:37 | 43.16680 | -79.67231 | 22835 ft | 214 kts | 193° |
| 2026-05-06 02:37 | 43.15182 | -79.67218 | 23130 ft | 216 kts | 192° |
| 2026-05-06 02:37 | 43.13680 | -79.67200 | 23433 ft | 216 kts | 192° |
| 2026-05-06 02:38 | 43.12166 | -79.67178 | 23718 ft | 218 kts | 192° |
| 2026-05-06 02:38 | 43.10646 | -79.67161 | 23989 ft | 219 kts | 192° |
| 2026-05-06 02:38 | 43.09117 | -79.67139 | 24256 ft | 220 kts | 192° |
| 2026-05-06 02:38 | 43.07575 | -79.67121 | 24518 ft | 222 kts | 192° |
| 2026-05-06 02:39 | 43.06050 | -79.67095 | 24791 ft | 222 kts | 192° |
| 2026-05-06 02:39 | 43.04498 | -79.67077 | 25044 ft | 223 kts | 192° |
| 2026-05-06 02:39 | 43.02939 | -79.67054 | 25288 ft | 225 kts | 192° |
| 2026-05-06 02:39 | 43.01368 | -79.67036 | 25518 ft | 226 kts | 192° |
| 2026-05-06 02:40 | 42.99799 | -79.67013 | 25766 ft | 227 kts | 192° |
| 2026-05-06 02:40 | 42.98221 | -79.66990 | 26018 ft | 227 kts | 191° |
| 2026-05-06 02:40 | 42.96636 | -79.66959 | 26210 ft | 229 kts | 192° |
| 2026-05-06 02:40 | 42.95041 | -79.66932 | 26423 ft | 229 kts | 192° |
| 2026-05-06 02:41 | 42.93440 | -79.66908 | 26637 ft | 230 kts | 192° |
| 2026-05-06 02:41 | 42.91826 | -79.66879 | 26784 ft | 235 kts | 192° |
| 2026-05-06 02:41 | 42.90160 | -79.66859 | 26864 ft | 243 kts | 191° |
| 2026-05-06 02:41 | 42.88439 | -79.66847 | 26888 ft | 252 kts | 191° |
| 2026-05-06 02:42 | 42.86645 | -79.66849 | 26913 ft | 263 kts | 191° |
| 2026-05-06 02:42 | 42.84781 | -79.66901 | 26929 ft | 273 kts | 193° |
| 2026-05-06 02:42 | 42.82866 | -79.67090 | 26983 ft | 281 kts | 195° |
| 2026-05-06 02:42 | 42.80871 | -79.67366 | 26958 ft | 294 kts | 195° |
| 2026-05-06 02:43 | 42.78783 | -79.67656 | 26954 ft | 308 kts | 194° |
| 2026-05-06 02:43 | 42.76604 | -79.67902 | 26951 ft | 321 kts | 193° |
| 2026-05-06 02:43 | 42.74358 | -79.68136 | 26946 ft | 333 kts | 193° |
| 2026-05-06 02:43 | 42.72003 | -79.68402 | 26938 ft | 346 kts | 192° |
| 2026-05-06 02:44 | 42.69562 | -79.68673 | 26930 ft | 357 kts | 192° |
| 2026-05-06 02:44 | 42.67041 | -79.68950 | 26925 ft | 369 kts | 192° |
| 2026-05-06 02:44 | 42.64442 | -79.69234 | 26919 ft | 380 kts | 192° |
| 2026-05-06 02:44 | 42.61769 | -79.69524 | 26913 ft | 390 kts | 192° |
| 2026-05-06 02:45 | 42.59023 | -79.69824 | 26908 ft | 401 kts | 191° |
| 2026-05-06 02:45 | 42.56203 | -79.70129 | 26905 ft | 410 kts | 191° |
| 2026-05-06 02:45 | 42.53322 | -79.70443 | 26902 ft | 419 kts | 191° |
| 2026-05-06 02:45 | 42.50378 | -79.70760 | 26895 ft | 428 kts | 191° |
| 2026-05-06 02:46 | 42.47399 | -79.71082 | 26891 ft | 432 kts | 191° |
| 2026-05-06 02:46 | 42.44398 | -79.71407 | 26887 ft | 434 kts | 191° |
| 2026-05-06 02:46 | 42.41381 | -79.71730 | 26892 ft | 436 kts | 191° |
| 2026-05-06 02:46 | 42.38350 | -79.72058 | 26886 ft | 437 kts | 191° |
| 2026-05-06 02:47 | 42.35307 | -79.71952 | 26862 ft | 441 kts | 176° |
| 2026-05-06 02:47 | 42.32390 | -79.70609 | 26879 ft | 446 kts | 162° |
| 2026-05-06 02:47 | 42.29629 | -79.68722 | 26870 ft | 442 kts | 159° |
| 2026-05-06 02:47 | 42.26966 | -79.66695 | 26863 ft | 438 kts | 156° |
| 2026-05-06 02:48 | 42.24448 | -79.64368 | 26860 ft | 442 kts | 147° |
| 2026-05-06 02:48 | 42.22239 | -79.61557 | 26864 ft | 443 kts | 141° |
| 2026-05-06 02:48 | 42.20081 | -79.58561 | 26867 ft | 447 kts | 141° |
| 2026-05-06 02:48 | 42.17915 | -79.55593 | 26877 ft | 454 kts | 142° |
| 2026-05-06 02:49 | 42.15614 | -79.52622 | 26880 ft | 462 kts | 143° |
| 2026-05-06 02:49 | 42.13269 | -79.49683 | 26891 ft | 470 kts | 143° |
| 2026-05-06 02:49 | 42.10871 | -79.46644 | 26890 ft | 475 kts | 143° |
| 2026-05-06 02:49 | 42.08459 | -79.43573 | 26889 ft | 478 kts | 143° |
| 2026-05-06 02:50 | 42.06034 | -79.40496 | 26889 ft | 481 kts | 143° |
| 2026-05-06 02:50 | 42.03587 | -79.37401 | 26890 ft | 483 kts | 143° |
| 2026-05-06 02:50 | 42.01133 | -79.34297 | 26875 ft | 485 kts | 143° |
| 2026-05-06 02:50 | 41.98668 | -79.31186 | 26874 ft | 487 kts | 143° |
| 2026-05-06 02:51 | 41.96198 | -79.28071 | 26876 ft | 489 kts | 143° |
| 2026-05-06 02:51 | 41.93715 | -79.24938 | 26881 ft | 491 kts | 142° |
| 2026-05-06 02:51 | 41.91217 | -79.21793 | 26876 ft | 492 kts | 143° |
| 2026-05-06 02:51 | 41.88724 | -79.18654 | 26887 ft | 489 kts | 143° |
| 2026-05-06 02:52 | 41.86267 | -79.15568 | 26862 ft | 479 kts | 143° |
| 2026-05-06 02:52 | 41.83817 | -79.12506 | 26856 ft | 485 kts | 143° |
| 2026-05-06 02:52 | 41.81345 | -79.09401 | 26877 ft | 487 kts | 143° |
| 2026-05-06 02:52 | 41.78877 | -79.06306 | 26872 ft | 486 kts | 143° |
| 2026-05-06 02:53 | 41.76409 | -79.03221 | 26873 ft | 485 kts | 143° |
| 2026-05-06 02:53 | 41.73938 | -79.00139 | 26871 ft | 483 kts | 143° |
| 2026-05-06 02:53 | 41.71489 | -78.97083 | 26872 ft | 479 kts | 143° |
| 2026-05-06 02:53 | 41.69061 | -78.94058 | 26861 ft | 475 kts | 143° |
| 2026-05-06 02:54 | 41.66656 | -78.91062 | 26850 ft | 470 kts | 143° |
| 2026-05-06 02:54 | 41.64267 | -78.88095 | 26859 ft | 466 kts | 143° |
| 2026-05-06 02:54 | 41.61916 | -78.85174 | 26854 ft | 456 kts | 143° |
| 2026-05-06 02:54 | 41.59616 | -78.82319 | 26852 ft | 445 kts | 143° |
| 2026-05-06 02:55 | 41.57370 | -78.79535 | 26848 ft | 435 kts | 143° |
| 2026-05-06 02:55 | 41.55176 | -78.76818 | 26845 ft | 425 kts | 144° |
| 2026-05-06 02:55 | 41.53047 | -78.74187 | 26842 ft | 422 kts | 144° |
| 2026-05-06 02:55 | 41.50872 | -78.71513 | 26842 ft | 429 kts | 144° |
| 2026-05-06 02:56 | 41.48663 | -78.68784 | 26848 ft | 436 kts | 143° |
| 2026-05-06 02:56 | 41.46425 | -78.66017 | 26860 ft | 441 kts | 143° |
| 2026-05-06 02:56 | 41.44160 | -78.63217 | 26867 ft | 446 kts | 143° |
| 2026-05-06 02:56 | 41.41869 | -78.60399 | 26876 ft | 451 kts | 143° |
| 2026-05-06 02:57 | 41.39553 | -78.57549 | 26876 ft | 455 kts | 143° |
| 2026-05-06 02:57 | 41.37217 | -78.54676 | 26880 ft | 459 kts | 143° |
| 2026-05-06 02:57 | 41.34862 | -78.51785 | 26855 ft | 463 kts | 143° |
| 2026-05-06 02:57 | 41.32481 | -78.48865 | 26851 ft | 466 kts | 143° |
| 2026-05-06 02:58 | 41.30086 | -78.45933 | 26851 ft | 469 kts | 143° |
| 2026-05-06 02:58 | 41.27678 | -78.42982 | 26858 ft | 472 kts | 143° |
| 2026-05-06 02:58 | 41.25254 | -78.40020 | 26859 ft | 475 kts | 143° |
| 2026-05-06 02:58 | 41.22809 | -78.37032 | 26860 ft | 478 kts | 143° |
| 2026-05-06 02:59 | 41.20353 | -78.34037 | 26862 ft | 480 kts | 143° |
| 2026-05-06 02:59 | 41.17882 | -78.31030 | 26869 ft | 483 kts | 143° |
| 2026-05-06 02:59 | 41.15407 | -78.28012 | 26857 ft | 484 kts | 143° |
| 2026-05-06 02:59 | 41.12910 | -78.24984 | 26871 ft | 486 kts | 143° |
| 2026-05-06 03:00 | 41.10445 | -78.21984 | 26863 ft | 488 kts | 143° |
| 2026-05-06 03:00 | 41.07901 | -78.18899 | 26852 ft | 490 kts | 143° |
| 2026-05-06 03:00 | 41.05388 | -78.15850 | 26868 ft | 491 kts | 143° |
| 2026-05-06 03:00 | 41.02861 | -78.12798 | 26852 ft | 488 kts | 143° |
| 2026-05-06 03:01 | 41.00434 | -78.09856 | 26348 ft | 466 kts | 143° |
| 2026-05-06 03:01 | 40.98163 | -78.07110 | 25856 ft | 448 kts | 143° |
| 2026-05-06 03:01 | 40.95935 | -78.04423 | 25358 ft | 442 kts | 143° |
| 2026-05-06 03:01 | 40.93574 | -78.01580 | 25083 ft | 446 kts | 143° |
| 2026-05-06 03:02 | 40.91281 | -77.98833 | 24968 ft | 444 kts | 144° |
| 2026-05-06 03:02 | 40.88961 | -77.96170 | 24925 ft | 441 kts | 145° |
| 2026-05-06 03:02 | 40.86642 | -77.93523 | 24908 ft | 438 kts | 144° |
| 2026-05-06 03:02 | 40.84353 | -77.90907 | 24884 ft | 434 kts | 145° |
| 2026-05-06 03:03 | 40.82074 | -77.88305 | 24880 ft | 431 kts | 145° |
| 2026-05-06 03:03 | 40.79807 | -77.85718 | 24877 ft | 428 kts | 144° |
| 2026-05-06 03:03 | 40.77587 | -77.83187 | 24876 ft | 425 kts | 145° |
| 2026-05-06 03:03 | 40.75357 | -77.80645 | 24875 ft | 423 kts | 145° |
| 2026-05-06 03:04 | 40.73137 | -77.78121 | 24874 ft | 420 kts | 145° |
| 2026-05-06 03:04 | 40.70923 | -77.75617 | 24871 ft | 420 kts | 145° |
| 2026-05-06 03:04 | 40.69449 | -77.73940 | 24872 ft | 423 kts | 145° |
| 2026-05-06 03:04 | 40.67214 | -77.71399 | 24854 ft | 426 kts | 145° |
| 2026-05-06 03:05 | 40.64956 | -77.68833 | 24870 ft | 429 kts | 145° |
| 2026-05-06 03:05 | 40.62689 | -77.66261 | 24869 ft | 432 kts | 145° |
| 2026-05-06 03:05 | 40.60398 | -77.63668 | 24869 ft | 435 kts | 144° |
| 2026-05-06 03:05 | 40.57335 | -77.60206 | 24871 ft | 439 kts | 145° |
| 2026-05-06 03:06 | 40.55769 | -77.58440 | 24869 ft | 441 kts | 144° |
| 2026-05-06 03:06 | 40.53427 | -77.55800 | 24869 ft | 444 kts | 144° |
| 2026-05-06 03:06 | 40.51077 | -77.53151 | 24872 ft | 446 kts | 144° |
| 2026-05-06 03:06 | 40.48712 | -77.50482 | 24871 ft | 449 kts | 144° |
| 2026-05-06 03:07 | 40.46363 | -77.47843 | 24869 ft | 451 kts | 144° |
| 2026-05-06 03:07 | 40.43975 | -77.45157 | 24868 ft | 453 kts | 144° |
| 2026-05-06 03:07 | 40.41575 | -77.42460 | 24871 ft | 454 kts | 144° |
| 2026-05-06 03:07 | 40.39173 | -77.39768 | 24873 ft | 454 kts | 144° |
| 2026-05-06 03:08 | 40.36773 | -77.37075 | 24876 ft | 453 kts | 144° |
| 2026-05-06 03:08 | 40.34381 | -77.34395 | 24873 ft | 453 kts | 144° |
| 2026-05-06 03:08 | 40.31978 | -77.31712 | 24867 ft | 452 kts | 144° |
| 2026-05-06 03:08 | 40.29581 | -77.29042 | 24862 ft | 452 kts | 144° |
| 2026-05-06 03:09 | 40.27191 | -77.26370 | 24873 ft | 452 kts | 144° |
| 2026-05-06 03:09 | 40.24790 | -77.23694 | 24875 ft | 452 kts | 144° |
| 2026-05-06 03:09 | 40.22395 | -77.21025 | 24879 ft | 453 kts | 144° |
| 2026-05-06 03:09 | 40.19996 | -77.18349 | 24879 ft | 453 kts | 144° |
| 2026-05-06 03:10 | 40.17606 | -77.15688 | 24881 ft | 453 kts | 144° |
| 2026-05-06 03:10 | 40.15193 | -77.13013 | 24881 ft | 453 kts | 144° |
| 2026-05-06 03:10 | 40.12794 | -77.10347 | 24886 ft | 453 kts | 144° |
| 2026-05-06 03:10 | 40.10386 | -77.07678 | 24743 ft | 457 kts | 144° |
| 2026-05-06 03:11 | 40.07952 | -77.04980 | 24450 ft | 456 kts | 144° |
| 2026-05-06 03:11 | 40.05581 | -77.02353 | 24155 ft | 445 kts | 145° |
| 2026-05-06 03:11 | 40.03255 | -76.99780 | 23848 ft | 436 kts | 145° |
| 2026-05-06 03:11 | 40.00958 | -76.97241 | 23399 ft | 429 kts | 145° |
| 2026-05-06 03:12 | 39.98684 | -76.94733 | 22905 ft | 429 kts | 145° |
| 2026-05-06 03:12 | 39.96425 | -76.92264 | 22380 ft | 429 kts | 145° |
| 2026-05-06 03:12 | 39.94109 | -76.89744 | 21827 ft | 427 kts | 145° |
| 2026-05-06 03:12 | 39.91836 | -76.87256 | 21282 ft | 426 kts | 145° |
| 2026-05-06 03:13 | 39.89600 | -76.84806 | 20744 ft | 424 kts | 145° |
| 2026-05-06 03:13 | 39.87351 | -76.82328 | 20195 ft | 422 kts | 144° |
| 2026-05-06 03:13 | 39.85122 | -76.79867 | 19644 ft | 420 kts | 145° |
| 2026-05-06 03:13 | 39.82895 | -76.77418 | 19093 ft | 418 kts | 145° |
| 2026-05-06 03:14 | 39.80678 | -76.74989 | 18541 ft | 415 kts | 145° |
| 2026-05-06 03:14 | 39.78481 | -76.72586 | 17985 ft | 411 kts | 145° |
| 2026-05-06 03:14 | 39.76310 | -76.70205 | 17439 ft | 405 kts | 145° |
| 2026-05-06 03:14 | 39.74163 | -76.67862 | 16890 ft | 400 kts | 145° |
| 2026-05-06 03:15 | 39.71886 | -76.65895 | 16322 ft | 387 kts | 159° |
| 2026-05-06 03:15 | 39.69370 | -76.64783 | 15776 ft | 377 kts | 170° |
| 2026-05-06 03:15 | 39.66839 | -76.64008 | 15231 ft | 371 kts | 172° |
| 2026-05-06 03:15 | 39.64338 | -76.63335 | 14687 ft | 366 kts | 173° |
| 2026-05-06 03:16 | 39.61847 | -76.62731 | 14140 ft | 361 kts | 174° |
| 2026-05-06 03:16 | 39.59378 | -76.62201 | 13634 ft | 356 kts | 178° |
| 2026-05-06 03:16 | 39.56938 | -76.62208 | 13128 ft | 348 kts | 189° |
| 2026-05-06 03:16 | 39.54578 | -76.62534 | 12638 ft | 345 kts | 190° |
| 2026-05-06 03:17 | 39.52155 | -76.62890 | 12278 ft | 345 kts | 190° |
| 2026-05-06 03:17 | 39.49769 | -76.63202 | 12131 ft | 344 kts | 189° |
| 2026-05-06 03:17 | 39.47415 | -76.63443 | 12099 ft | 339 kts | 188° |
| 2026-05-06 03:17 | 39.45029 | -76.63654 | 11898 ft | 340 kts | 188° |
| 2026-05-06 03:18 | 39.42856 | -76.63847 | 11783 ft | 338 kts | 188° |
| 2026-05-06 03:18 | 39.40682 | -76.64050 | 11649 ft | 337 kts | 188° |
| 2026-05-06 03:18 | 39.38342 | -76.64259 | 11504 ft | 337 kts | 188° |
| 2026-05-06 03:18 | 39.36035 | -76.64468 | 11362 ft | 336 kts | 188° |
| 2026-05-06 03:19 | 39.33706 | -76.64679 | 11216 ft | 335 kts | 188° |
| 2026-05-06 03:19 | 39.31373 | -76.64887 | 11037 ft | 335 kts | 188° |
| 2026-05-06 03:19 | 39.29054 | -76.65099 | 10867 ft | 335 kts | 188° |
| 2026-05-06 03:19 | 39.26731 | -76.65308 | 10689 ft | 334 kts | 188° |
| 2026-05-06 03:20 | 39.22165 | -76.65718 | 10343 ft | 333 kts | 188° |
| 2026-05-06 03:20 | 39.20267 | -76.66167 | 10186 ft | 328 kts | 202° |
| 2026-05-06 03:20 | 39.18225 | -76.67414 | 10091 ft | 322 kts | 210° |
| 2026-05-06 03:21 | 39.16267 | -76.68755 | 10053 ft | 317 kts | 211° |
| 2026-05-06 03:21 | 39.14343 | -76.70113 | 9979 ft | 314 kts | 212° |
| 2026-05-06 03:21 | 39.12474 | -76.71550 | 9914 ft | 311 kts | 217° |
| 2026-05-06 03:21 | 39.10820 | -76.73319 | 9864 ft | 308 kts | 224° |
| 2026-05-06 03:22 | 39.09384 | -76.75089 | 9818 ft | 305 kts | 225° |
| 2026-05-06 03:22 | 39.07862 | -76.76977 | 9768 ft | 303 kts | 225° |
| 2026-05-06 03:22 | 39.06343 | -76.78871 | 9715 ft | 302 kts | 225° |
| 2026-05-06 03:22 | 39.04841 | -76.80703 | 9659 ft | 290 kts | 224° |
| 2026-05-06 03:23 | 39.03403 | -76.82415 | 9595 ft | 274 kts | 224° |
| 2026-05-06 03:23 | 39.02181 | -76.83858 | 9530 ft | 261 kts | 224° |
| 2026-05-06 03:23 | 39.00837 | -76.85440 | 9447 ft | 249 kts | 224° |
| 2026-05-06 03:23 | 38.99602 | -76.87027 | 9368 ft | 255 kts | 234° |
| 2026-05-06 03:24 | 38.98856 | -76.89097 | 9330 ft | 259 kts | 251° |
| 2026-05-06 03:24 | 38.98343 | -76.91321 | 9296 ft | 260 kts | 252° |
| 2026-05-06 03:24 | 38.97853 | -76.93555 | 9251 ft | 259 kts | 252° |
| 2026-05-06 03:24 | 38.97396 | -76.95786 | 9197 ft | 259 kts | 254° |
| 2026-05-06 03:25 | 38.97281 | -76.98107 | 9150 ft | 263 kts | 269° |
| 2026-05-06 03:25 | 38.97413 | -77.00453 | 9113 ft | 264 kts | 270° |
| 2026-05-06 03:25 | 38.97933 | -77.02774 | 9017 ft | 285 kts | 297° |
| 2026-05-06 03:25 | 38.99218 | -77.04804 | 8968 ft | 298 kts | 307° |
| 2026-05-06 03:26 | 39.00719 | -77.06697 | 8903 ft | 306 kts | 311° |
| 2026-05-06 03:26 | 39.02310 | -77.08546 | 8817 ft | 312 kts | 313° |
| 2026-05-06 03:26 | 39.03939 | -77.10424 | 8728 ft | 317 kts | 313° |
| 2026-05-06 03:26 | 39.05551 | -77.12301 | 8321 ft | 309 kts | 311° |
| 2026-05-06 03:27 | 39.07110 | -77.14194 | 7827 ft | 306 kts | 310° |
| 2026-05-06 03:27 | 39.08600 | -77.16055 | 7332 ft | 300 kts | 309° |
| 2026-05-06 03:27 | 39.10082 | -77.17916 | 6816 ft | 291 kts | 309° |
| 2026-05-06 03:27 | 39.11469 | -77.19752 | 6292 ft | 278 kts | 300° |
| 2026-05-06 03:28 | 39.12179 | -77.21924 | 5782 ft | 257 kts | 277° |
| 2026-05-06 03:28 | 39.12390 | -77.24145 | 5263 ft | 243 kts | 257° |
| 2026-05-06 03:28 | 39.11689 | -77.26024 | 4711 ft | 231 kts | 227° |
| 2026-05-06 03:28 | 39.10509 | -77.27405 | 4176 ft | 229 kts | 211° |
| 2026-05-06 03:29 | 39.09006 | -77.28031 | 3644 ft | 231 kts | 189° |
| 2026-05-06 03:29 | 39.07420 | -77.28100 | 3293 ft | 226 kts | 175° |
| 2026-05-06 03:29 | 39.05974 | -77.27650 | 3146 ft | 214 kts | 168° |
| 2026-05-06 03:29 | 39.04564 | -77.27097 | 3092 ft | 197 kts | 167° |
| 2026-05-06 03:30 | 39.03199 | -77.26415 | 3041 ft | 226 kts | 155° |
| 2026-05-06 03:30 | 39.01900 | -77.25249 | 3014 ft | 228 kts | 147° |
| 2026-05-06 03:30 | 39.00735 | -77.23934 | 3004 ft | 215 kts | 144° |
| 2026-05-06 03:30 | 38.99634 | -77.22580 | 2985 ft | 233 kts | 142° |
| 2026-05-06 03:31 | 38.98546 | -77.21065 | 3019 ft | 220 kts | 139° |
| 2026-05-06 03:31 | 38.97708 | -77.19414 | 2868 ft | 220 kts | 126° |
| 2026-05-06 03:31 | 38.97090 | -77.17630 | 2664 ft | 219 kts | 116° |
| 2026-05-06 03:31 | 38.96618 | -77.15753 | 2243 ft | 224 kts | 117° |
| 2026-05-06 03:32 | 38.95812 | -77.14092 | 1890 ft | 209 kts | 142° |
| 2026-05-06 03:32 | 38.94708 | -77.13090 | 1682 ft | 187 kts | 151° |
| 2026-05-06 03:32 | 38.93722 | -77.12238 | 1702 ft | 157 kts | 150° |
| 2026-05-06 03:32 | 38.92876 | -77.11445 | 1734 ft | 145 kts | 148° |
| 2026-05-06 03:33 | 38.92152 | -77.10740 | 1581 ft | 126 kts | 150° |
| 2026-05-06 03:33 | 38.91476 | -77.10051 | 1359 ft | 121 kts | 144° |
| 2026-05-06 03:33 | 38.90905 | -77.09221 | 1095 ft | 132 kts | 130° |
| 2026-05-06 03:33 | 38.90503 | -77.08109 | 1058 ft | 145 kts | 110° |
| 2026-05-06 03:34 | 38.90142 | -77.06871 | 941 ft | 148 kts | 128° |
| 2026-05-06 03:34 | 38.89366 | -77.06044 | 794 ft | 145 kts | 149° |
| 2026-05-06 03:34 | 38.88559 | -77.05306 | 703 ft | 140 kts | 143° |
| 2026-05-06 03:34 | 38.87884 | -77.04403 | 488 ft | 138 kts | 140° |
| 2026-05-06 03:35 | 38.87021 | -77.03961 | 295 ft | 135 kts | 175° |
| 2026-05-06 03:35 | 38.86142 | -77.03869 | 46 ft | 129 kts | 177° |
| 2026-05-06 03:35 | 38.85406 | -77.03803 | 22 ft | 99 kts | 175° |
| 2026-05-06 03:35 | 38.84836 | -77.03741 | 22 ft | 66 kts | 176° |
| 2026-05-06 03:36 | 38.84522 | -77.03713 | 22 ft | 16 kts | 175° |
| 2026-05-06 03:36 | 38.84427 | -77.03715 | 24 ft | 18 kts | 204° |
| 2026-05-06 03:36 | 38.84390 | -77.03855 | 23 ft | 16 kts | 269° |
| 2026-05-06 03:36 | 38.84382 | -77.03977 | 24 ft | 15 kts | 264° |
| 2026-05-06 03:37 | 38.84396 | -77.04110 | 23 ft | 14 kts | 325° |
| 2026-05-06 03:37 | 38.84482 | -77.04131 | 23 ft | 14 kts | 351° |
| 2026-05-06 03:37 | 38.84522 | -77.04140 | 22 ft | 2 kts | 351° |
| 2026-05-06 03:37 | 38.84530 | -77.04142 | 22 ft | 1 kts | 351° |
| 2026-05-06 03:38 | 38.84553 | -77.04147 | 22 ft | 7 kts | 347° |
| 2026-05-06 03:38 | 38.84573 | -77.04162 | 22 ft | 4 kts | 305° |
| 2026-05-06 03:38 | 38.84570 | -77.04228 | 22 ft | 10 kts | 258° |
| 2026-05-06 03:38 | 38.84565 | -77.04302 | 22 ft | 15 kts | 281° |
| 2026-05-06 03:39 | 38.84654 | -77.04402 | 22 ft | 11 kts | 353° |
| 2026-05-06 03:39 | 38.84684 | -77.04380 | 22 ft | 3 kts | 92° |
| 2026-05-06 03:39 | 38.84683 | -77.04363 | 22 ft | 3 kts | 91° |
| 2026-05-06 03:39 | 38.84682 | -77.04349 | 22 ft | 1 kts | 92° |
| 2026-05-06 03:40 | 38.84682 | -77.04347 | 22 ft | 0 kts | 93° |